createdAt,value
2024-02-27T00:01:42.837Z,9.50
2024-02-27T00:04:11.448Z,9.32
2024-02-27T00:06:39.654Z,10.35
2024-02-27T00:09:09.666Z,10.07
2024-02-27T00:11:37.806Z,9.70
2024-02-27T00:14:06.313Z,9.60
2024-02-27T00:16:34.432Z,9.05
2024-02-27T00:19:04.601Z,9.20
2024-02-27T00:21:33.191Z,8.68
2024-02-27T00:24:01.660Z,9.30
2024-02-27T00:26:30.088Z,8.93
2024-02-27T00:28:58.198Z,9.20
2024-02-27T00:31:26.630Z,9.18
2024-02-27T00:33:54.868Z,9.70
2024-02-27T00:36:24.438Z,9.40
2024-02-27T00:38:52.852Z,10.00
2024-02-27T00:41:20.970Z,9.93
2024-02-27T00:43:49.382Z,9.18
2024-02-27T00:46:17.503Z,10.30
2024-02-27T00:48:46.008Z,9.50
2024-02-27T00:51:14.702Z,9.45
2024-02-27T00:53:44.489Z,9.18
2024-02-27T00:56:12.601Z,10.07
2024-02-27T00:58:44.793Z,10.27
2024-02-27T01:01:13.014Z,9.57
2024-02-27T01:03:41.186Z,10.27
2024-02-27T01:06:09.668Z,10.00
2024-02-27T01:08:38.168Z,10.02
2024-02-27T01:11:07.807Z,8.95
2024-02-27T01:13:36.351Z,10.63
2024-02-27T01:16:04.637Z,9.80
2024-02-27T01:18:33.484Z,10.48
2024-02-27T01:21:03.408Z,11.10
2024-02-27T01:23:32.337Z,10.65
2024-02-27T01:26:00.457Z,11.82
2024-02-27T01:28:30.194Z,11.50
2024-02-27T01:30:58.325Z,11.00
2024-02-27T01:33:26.838Z,11.52
2024-02-27T01:35:55.095Z,11.90
2024-02-27T01:38:23.559Z,10.77
2024-02-27T01:40:51.674Z,11.05
2024-02-27T01:43:24.268Z,10.80
2024-02-27T01:46:05.521Z,10.95
2024-02-27T01:48:35.113Z,11.35
2024-02-27T01:51:03.949Z,10.65
2024-02-27T01:53:32.494Z,11.70
2024-02-27T01:56:01.233Z,11.80
2024-02-27T01:58:29.703Z,10.80
2024-02-27T02:00:59.655Z,10.73
2024-02-27T02:03:30.393Z,12.30
2024-02-27T02:05:59.838Z,12.15
2024-02-27T02:08:30.712Z,11.98
2024-02-27T02:10:59.206Z,11.43
2024-02-27T02:13:28.111Z,11.95
2024-02-27T02:15:56.606Z,10.23
2024-02-27T02:18:27.317Z,11.73
2024-02-27T02:20:56.920Z,11.10
2024-02-27T02:23:25.663Z,10.85
2024-02-27T02:25:54.461Z,11.60
2024-02-27T02:28:22.584Z,11.68
2024-02-27T02:30:51.017Z,12.82
2024-02-27T02:33:19.434Z,11.70
2024-02-27T02:35:48.040Z,11.68
2024-02-27T02:38:17.539Z,11.60
2024-02-27T02:40:45.904Z,11.27
2024-02-27T02:43:14.180Z,10.13
2024-02-27T02:45:43.666Z,11.50
2024-02-27T02:48:12.008Z,11.50
2024-02-27T02:50:40.583Z,10.60
2024-02-27T02:53:08.833Z,10.32
2024-02-27T02:55:43.018Z,11.30
2024-02-27T02:58:11.510Z,9.95
2024-02-27T03:00:39.885Z,11.32
2024-02-27T03:03:08.342Z,11.10
2024-02-27T03:05:36.473Z,11.00
2024-02-27T03:08:06.074Z,10.25
2024-02-27T03:10:34.150Z,10.90
2024-02-27T03:13:03.961Z,10.85
2024-02-27T03:15:32.804Z,10.23
2024-02-27T03:18:01.352Z,10.68
2024-02-27T03:20:29.468Z,11.43
2024-02-27T03:22:57.616Z,10.45
2024-02-27T03:25:25.763Z,10.27
2024-02-27T03:27:53.881Z,10.70
2024-02-27T03:30:23.668Z,10.85
2024-02-27T03:32:51.893Z,10.77
2024-02-27T03:35:20.344Z,10.40
2024-02-27T03:37:48.452Z,9.65
2024-02-27T03:40:16.906Z,10.63
2024-02-27T03:42:45.179Z,10.77
2024-02-27T03:45:13.439Z,10.27
2024-02-27T03:47:42.991Z,11.30
2024-02-27T03:50:11.924Z,10.20
2024-02-27T03:52:40.168Z,10.45
2024-02-27T03:55:10.033Z,10.73
2024-02-27T03:57:38.160Z,10.88
2024-02-27T04:00:08.016Z,11.60
2024-02-27T04:02:36.129Z,12.18
2024-02-27T04:05:09.424Z,12.88
2024-02-27T04:07:37.617Z,13.27
2024-02-27T04:10:06.961Z,14.98
2024-02-27T04:12:35.670Z,14.10
2024-02-27T04:15:04.149Z,12.77
2024-02-27T04:17:32.384Z,11.77
2024-02-27T04:20:00.777Z,11.75
2024-02-27T04:22:30.404Z,12.07
2024-02-27T04:24:58.757Z,13.80
2024-02-27T04:27:26.925Z,14.80
2024-02-27T04:29:55.390Z,16.25
2024-02-27T04:32:23.554Z,16.33
2024-02-27T04:34:51.956Z,16.58
2024-02-27T04:37:20.037Z,16.67
2024-02-27T04:39:49.971Z,13.05
2024-02-27T04:42:18.120Z,10.88
2024-02-27T04:44:46.597Z,11.00
2024-02-27T04:47:14.724Z,11.90
2024-02-27T04:49:43.251Z,10.75
2024-02-27T04:52:12.756Z,10.48
2024-02-27T04:54:41.235Z,10.00
2024-02-27T04:57:11.028Z,10.00
2024-02-27T04:59:39.094Z,9.65
2024-02-27T05:02:07.197Z,9.27
2024-02-27T05:04:35.368Z,10.05
2024-02-27T05:07:04.290Z,9.85
2024-02-27T05:09:32.669Z,8.80
2024-02-27T05:12:01.668Z,9.27
2024-02-27T05:14:31.151Z,9.80
2024-02-27T05:16:59.565Z,10.68
2024-02-27T05:19:27.923Z,8.65
2024-02-27T05:21:56.700Z,9.35
2024-02-27T05:24:24.836Z,9.27
2024-02-27T05:26:54.087Z,9.77
2024-02-27T05:29:22.167Z,10.60
2024-02-27T05:31:51.678Z,10.15
2024-02-27T05:34:20.149Z,10.55
2024-02-27T05:36:48.549Z,9.87
2024-02-27T05:39:17.055Z,9.93
2024-02-27T05:41:45.204Z,9.75
2024-02-27T05:44:13.812Z,9.85
2024-02-27T05:46:41.933Z,10.07
2024-02-27T05:49:11.774Z,9.52
2024-02-27T05:51:41.982Z,9.45
2024-02-27T05:54:10.333Z,10.40
2024-02-27T05:56:38.826Z,9.80
2024-02-27T05:59:07.073Z,8.68
2024-02-27T06:01:36.376Z,9.02
2024-02-27T06:04:04.788Z,9.80
2024-02-27T06:06:34.656Z,11.63
2024-02-27T06:09:04.931Z,10.47
2024-02-27T06:11:33.586Z,10.95
2024-02-27T06:14:03.731Z,10.60
2024-02-27T06:16:32.163Z,11.43
2024-02-27T06:19:00.586Z,10.85
2024-02-27T06:21:46.290Z,11.37
2024-02-27T06:24:15.812Z,10.95
2024-02-27T06:26:44.216Z,11.40
2024-02-27T06:29:12.327Z,11.13
2024-02-27T06:31:40.868Z,11.13
2024-02-27T06:34:09.044Z,11.82
2024-02-27T06:36:37.525Z,11.90
2024-02-27T06:39:05.823Z,11.50
2024-02-27T06:41:35.605Z,12.48
2024-02-27T06:44:03.763Z,11.13
2024-02-27T06:46:32.417Z,12.05
2024-02-27T06:49:07.621Z,12.13
2024-02-27T06:51:42.848Z,12.32
2024-02-27T06:54:11.062Z,11.32
2024-02-27T06:56:40.996Z,12.05
2024-02-27T06:59:09.088Z,12.63
2024-02-27T07:01:37.519Z,12.98
2024-02-27T07:04:05.869Z,12.05
2024-02-27T07:06:35.085Z,12.23
2024-02-27T07:09:03.530Z,12.38
2024-02-27T07:11:33.011Z,12.63
2024-02-27T07:14:02.568Z,12.23
2024-02-27T07:16:30.977Z,12.15
2024-02-27T07:18:59.871Z,11.52
2024-02-27T07:21:28.108Z,11.68
2024-02-27T07:23:56.564Z,12.17
2024-02-27T07:26:24.691Z,13.50
2024-02-27T07:28:52.847Z,13.23
2024-02-27T07:31:23.581Z,12.18
2024-02-27T07:33:51.707Z,13.18
2024-02-27T07:36:19.999Z,14.52
2024-02-27T07:38:48.132Z,15.05
2024-02-27T07:41:16.545Z,14.57
2024-02-27T07:43:44.637Z,14.65
2024-02-27T07:46:14.703Z,14.13
2024-02-27T07:48:45.967Z,12.93
2024-02-27T07:51:28.010Z,13.90
2024-02-27T07:53:56.562Z,13.35
2024-02-27T07:56:24.739Z,13.50
2024-02-27T07:58:52.815Z,14.43
2024-02-27T08:01:21.501Z,13.82
2024-02-27T08:03:51.048Z,15.35
2024-02-27T08:06:19.390Z,14.38
2024-02-27T08:08:48.133Z,14.95
2024-02-27T08:11:16.340Z,14.60
2024-02-27T08:13:44.713Z,14.57
2024-02-27T08:16:12.837Z,13.13
2024-02-27T08:18:41.055Z,14.35
2024-02-27T08:21:10.691Z,14.90
2024-02-27T08:23:40.488Z,14.35
2024-02-27T08:26:08.606Z,14.32
2024-02-27T08:28:37.044Z,13.98
2024-02-27T08:31:05.607Z,13.38
2024-02-27T08:33:34.171Z,14.50
2024-02-27T08:36:02.748Z,13.68
2024-02-27T08:38:32.292Z,14.77
2024-02-27T08:41:02.424Z,14.80
2024-02-27T08:43:33.129Z,14.52
2024-02-27T08:46:01.894Z,13.57
2024-02-27T08:48:30.585Z,14.32
2024-02-27T08:50:59.133Z,13.93
2024-02-27T08:53:27.262Z,14.00
2024-02-27T08:55:56.774Z,13.98
2024-02-27T08:58:25.637Z,14.43
2024-02-27T09:00:54.235Z,14.07
2024-02-27T09:03:23.116Z,15.23
2024-02-27T09:05:51.980Z,14.15
2024-02-27T09:08:20.484Z,13.88
2024-02-27T09:10:49.034Z,13.50
2024-02-27T09:13:18.886Z,14.07
2024-02-27T09:15:47.950Z,13.60
2024-02-27T09:18:16.291Z,14.45
2024-02-27T09:20:45.079Z,13.77
2024-02-27T09:23:13.520Z,14.05
2024-02-27T09:25:41.928Z,13.82
2024-02-27T09:28:10.172Z,14.38
2024-02-27T09:30:39.906Z,14.60
2024-02-27T09:33:09.177Z,13.00
2024-02-27T09:35:37.730Z,14.07
2024-02-27T09:38:06.473Z,13.23
2024-02-27T09:40:34.940Z,13.82
2024-02-27T09:43:04.109Z,12.98
2024-02-27T09:45:33.625Z,13.35
2024-02-27T09:48:05.503Z,12.20
2024-02-27T09:50:36.211Z,12.55
2024-02-27T09:53:05.346Z,12.90
2024-02-27T09:55:33.480Z,13.25
2024-02-27T09:58:04.741Z,12.35
2024-02-27T10:00:33.170Z,13.43
2024-02-27T10:03:04.689Z,12.55
2024-02-27T10:05:34.490Z,13.48
2024-02-27T10:08:05.091Z,13.07
2024-02-27T10:10:34.708Z,11.25
2024-02-27T10:13:03.269Z,12.30
2024-02-27T10:15:31.365Z,11.90
2024-02-27T10:18:00.234Z,12.80
2024-02-27T10:20:32.105Z,12.30
2024-02-27T10:23:00.663Z,11.55
2024-02-27T10:25:29.540Z,12.13
2024-02-27T10:28:00.087Z,11.38
2024-02-27T10:30:30.499Z,11.48
2024-02-27T10:32:58.726Z,11.32
2024-02-27T10:35:27.544Z,11.77
2024-02-27T10:37:57.608Z,11.30
2024-02-27T10:40:25.994Z,12.07
2024-02-27T10:42:54.873Z,12.10
2024-02-27T10:45:23.477Z,12.57
2024-02-27T10:47:52.264Z,11.85
2024-02-27T10:50:22.455Z,11.98
2024-02-27T10:52:52.345Z,11.32
2024-02-27T10:55:25.772Z,11.55
2024-02-27T10:58:00.417Z,12.82
2024-02-27T11:00:29.194Z,11.40
2024-02-27T11:02:58.767Z,11.85
2024-02-27T11:05:29.354Z,11.98
2024-02-27T11:07:58.543Z,12.25
2024-02-27T11:10:30.578Z,11.90
2024-02-27T11:13:01.707Z,12.15
2024-02-27T11:15:31.170Z,11.23
2024-02-27T11:18:02.557Z,12.05
2024-02-27T11:20:31.258Z,10.50
2024-02-27T11:23:00.112Z,11.05
2024-02-27T11:25:30.311Z,11.68
2024-02-27T11:28:00.703Z,10.65
2024-02-27T11:30:30.740Z,11.73
2024-02-27T11:33:00.316Z,11.43
2024-02-27T11:35:29.554Z,9.88
2024-02-27T11:37:58.009Z,10.40
2024-02-27T11:40:49.604Z,10.73
2024-02-27T11:43:18.238Z,10.57
2024-02-27T11:45:46.405Z,10.50
2024-02-27T11:48:14.770Z,9.23
2024-02-27T11:50:49.709Z,10.20
2024-02-27T11:53:36.265Z,10.15
2024-02-27T11:56:08.534Z,10.25
2024-02-27T11:58:36.942Z,9.75
2024-02-27T12:01:06.700Z,9.98
2024-02-27T12:03:35.414Z,9.68
2024-02-27T12:06:06.427Z,9.02
2024-02-27T12:08:35.002Z,10.13
2024-02-27T12:11:03.780Z,8.88
2024-02-27T12:13:34.302Z,9.57
2024-02-27T12:16:02.540Z,8.68
2024-02-27T12:18:31.648Z,9.23
2024-02-27T12:21:02.869Z,8.18
2024-02-27T12:23:32.479Z,8.43
2024-02-27T12:26:01.668Z,8.95
2024-02-27T12:28:32.473Z,8.43
2024-02-27T12:31:01.049Z,8.77
2024-02-27T12:33:29.964Z,8.05
2024-02-27T12:35:58.714Z,8.27
2024-02-27T12:38:26.916Z,7.82
2024-02-27T12:40:55.511Z,8.70
2024-02-27T12:43:23.973Z,8.68
2024-02-27T12:45:54.056Z,8.65
2024-02-27T12:48:23.533Z,8.10
2024-02-27T12:50:52.020Z,7.95
2024-02-27T12:53:20.933Z,7.40
2024-02-27T12:55:49.882Z,8.07
2024-02-27T12:58:25.455Z,8.15
2024-02-27T13:00:56.037Z,8.10
2024-02-27T13:03:26.812Z,8.40
2024-02-27T13:05:55.073Z,8.23
2024-02-27T13:08:23.971Z,8.30
2024-02-27T13:10:52.660Z,8.25
2024-02-27T13:13:22.534Z,8.15
2024-02-27T13:15:52.253Z,7.40
2024-02-27T13:18:22.394Z,7.60
2024-02-27T13:20:50.645Z,8.25
2024-02-27T13:23:25.438Z,8.75
2024-02-27T13:25:58.345Z,8.63
2024-02-27T13:28:29.283Z,8.38
2024-02-27T13:30:58.055Z,7.93
2024-02-27T13:33:28.985Z,7.93
2024-02-27T13:35:58.007Z,8.38
2024-02-27T13:38:26.129Z,7.97
2024-02-27T13:40:55.712Z,8.05
2024-02-27T13:43:24.375Z,8.88
2024-02-27T13:45:53.187Z,10.25
2024-02-27T13:48:21.449Z,9.80
2024-02-27T13:50:52.382Z,9.80
2024-02-27T13:53:20.854Z,9.18
2024-02-27T13:55:50.861Z,9.68
2024-02-27T13:58:19.260Z,9.90
2024-02-27T14:00:47.717Z,8.98
2024-02-27T14:03:16.766Z,8.98
2024-02-27T14:05:45.427Z,9.90
2024-02-27T14:08:15.498Z,11.75
2024-02-27T14:10:46.437Z,10.73
2024-02-27T14:13:14.938Z,9.63
2024-02-27T14:15:43.271Z,10.45
2024-02-27T14:18:12.158Z,10.13
2024-02-27T14:20:40.571Z,10.48
2024-02-27T14:23:08.666Z,9.10
2024-02-27T14:25:38.628Z,10.23
2024-02-27T14:28:06.921Z,10.48
2024-02-27T14:30:35.280Z,9.65
2024-02-27T14:33:03.759Z,9.32
2024-02-27T14:35:34.756Z,10.00
2024-02-27T14:38:03.208Z,9.63
2024-02-27T14:40:31.793Z,10.43
2024-02-27T14:43:01.597Z,9.20
2024-02-27T14:45:29.741Z,9.45
2024-02-27T14:47:57.917Z,9.60
2024-02-27T14:50:26.113Z,10.30
2024-02-27T14:52:54.793Z,10.35
2024-02-27T14:55:23.171Z,9.65
2024-02-27T14:57:51.373Z,10.90
2024-02-27T15:00:21.761Z,10.25
2024-02-27T15:02:49.961Z,10.63
2024-02-27T15:05:20.533Z,11.57
2024-02-27T15:07:48.796Z,11.05
2024-02-27T15:10:17.424Z,10.75
2024-02-27T15:12:45.628Z,10.80
2024-02-27T15:15:14.160Z,10.15
2024-02-27T15:17:44.090Z,10.18
2024-02-27T15:20:13.596Z,10.77
2024-02-27T15:22:42.766Z,11.20
2024-02-27T15:25:11.980Z,10.93
2024-02-27T15:27:40.867Z,10.65
2024-02-27T15:30:12.163Z,10.60
2024-02-27T15:32:40.395Z,9.57
2024-02-27T15:35:12.234Z,10.95
2024-02-27T15:37:40.342Z,10.27
2024-02-27T15:40:09.396Z,10.85
2024-02-27T15:42:37.842Z,9.93
2024-02-27T15:45:07.097Z,10.13
2024-02-27T15:47:35.943Z,10.02
2024-02-27T15:50:04.367Z,10.48
2024-02-27T15:52:34.165Z,10.35
2024-02-27T15:55:02.647Z,9.93
2024-02-27T15:57:31.001Z,9.68
2024-02-27T15:59:59.561Z,10.00
2024-02-27T16:02:29.186Z,10.07
2024-02-27T16:05:00.462Z,10.52
2024-02-27T16:07:33.366Z,10.20
2024-02-27T16:10:04.576Z,9.93
2024-02-27T16:12:35.974Z,10.25
2024-02-27T16:15:07.532Z,10.98
2024-02-27T16:17:35.826Z,10.32
2024-02-27T16:20:05.198Z,11.13
2024-02-27T16:22:33.632Z,10.07
2024-02-27T16:25:04.570Z,10.13
2024-02-27T16:27:33.023Z,10.68
2024-02-27T16:30:01.207Z,9.45
2024-02-27T16:32:29.686Z,9.63
2024-02-27T16:34:57.876Z,10.00
2024-02-27T16:37:27.740Z,11.10
2024-02-27T16:39:55.879Z,10.15
2024-02-27T16:42:25.754Z,8.90
2024-02-27T16:44:53.870Z,9.48
2024-02-27T16:47:22.303Z,9.82
2024-02-27T16:49:50.536Z,9.80
2024-02-27T16:52:19.040Z,9.13
2024-02-27T16:54:49.719Z,11.32
2024-02-27T16:57:18.200Z,10.45
2024-02-27T16:59:48.177Z,10.00
2024-02-27T17:02:16.332Z,10.65
2024-02-27T17:04:44.785Z,10.23
2024-02-27T17:07:13.076Z,10.52
2024-02-27T17:09:41.314Z,9.88
2024-02-27T17:12:10.178Z,9.93
2024-02-27T17:14:38.329Z,10.93
2024-02-27T17:17:08.612Z,11.20
2024-02-27T17:19:37.257Z,10.32
2024-02-27T17:22:06.099Z,10.30
2024-02-27T17:24:34.603Z,11.05
2024-02-27T17:27:02.744Z,10.77
2024-02-27T17:29:31.148Z,10.50
2024-02-27T17:31:59.649Z,11.05
2024-02-27T17:34:30.255Z,10.25
2024-02-27T17:36:58.539Z,11.32
2024-02-27T17:39:27.011Z,11.18
2024-02-27T17:41:55.231Z,11.27
2024-02-27T17:44:24.842Z,11.90
2024-02-27T17:46:58.581Z,11.63
2024-02-27T17:49:28.336Z,11.80
2024-02-27T17:51:56.534Z,11.63
2024-02-27T17:54:24.774Z,13.30
2024-02-27T17:56:52.897Z,12.82
2024-02-27T17:59:21.134Z,12.60
2024-02-27T18:01:49.824Z,13.15
2024-02-27T18:04:18.195Z,13.40
2024-02-27T18:06:48.303Z,12.57
2024-02-27T18:09:16.934Z,13.40
2024-02-27T18:11:45.185Z,13.02
2024-02-27T18:14:13.575Z,13.23
2024-02-27T18:16:41.892Z,14.43
2024-02-27T18:19:13.606Z,13.02
2024-02-27T18:21:42.734Z,12.93
2024-02-27T18:24:12.895Z,14.30
2024-02-27T18:26:41.078Z,13.15
2024-02-27T18:29:09.141Z,14.20
2024-02-27T18:31:39.287Z,14.65
2024-02-27T18:34:07.622Z,13.98
2024-02-27T18:36:37.499Z,14.75
2024-02-27T18:39:07.094Z,13.50
2024-02-27T18:41:36.820Z,15.27
2024-02-27T18:44:05.270Z,14.85
2024-02-27T18:46:33.380Z,16.13
2024-02-27T18:49:04.432Z,16.30
2024-02-27T18:51:32.731Z,15.00
2024-02-27T18:54:01.130Z,15.88
2024-02-27T18:56:30.922Z,16.00
2024-02-27T18:59:00.618Z,15.68
2024-02-27T19:01:28.831Z,15.60
2024-02-27T19:03:56.962Z,15.45
2024-02-27T19:06:25.494Z,15.63
2024-02-27T19:08:53.810Z,16.30
2024-02-27T19:11:22.099Z,15.57
2024-02-27T19:13:50.313Z,16.05
2024-02-27T19:16:20.689Z,16.88
2024-02-27T19:18:49.131Z,15.75
2024-02-27T19:21:17.721Z,16.35
2024-02-27T19:23:45.913Z,15.52
2024-02-27T19:26:14.309Z,16.38
2024-02-27T19:28:44.508Z,15.75
2024-02-27T19:31:13.973Z,14.68
2024-02-27T19:33:43.508Z,16.27
2024-02-27T19:36:12.170Z,15.20
2024-02-27T19:38:40.343Z,14.07
2024-02-27T19:41:09.579Z,14.93
2024-02-27T19:43:38.049Z,13.93
2024-02-27T19:46:15.325Z,14.65
2024-02-27T19:48:47.117Z,14.82
2024-02-27T19:51:15.798Z,14.25
2024-02-27T19:53:44.599Z,15.90
2024-02-27T19:56:12.756Z,15.55
2024-02-27T19:58:41.504Z,15.40
2024-02-27T20:01:10.065Z,16.63
2024-02-27T20:03:38.418Z,16.38
2024-02-27T20:06:08.479Z,15.90
2024-02-27T20:08:36.662Z,16.48
2024-02-27T20:11:05.516Z,16.65
2024-02-27T20:13:35.340Z,17.77
2024-02-27T20:16:03.559Z,15.98
2024-02-27T20:18:36.469Z,17.70
2024-02-27T20:21:05.481Z,16.45
2024-02-27T20:23:36.743Z,17.50
2024-02-27T20:26:06.128Z,17.35
2024-02-27T20:28:34.369Z,16.85
2024-02-27T20:31:02.715Z,17.00
2024-02-27T20:33:31.424Z,18.05
2024-02-27T20:35:59.605Z,18.25
2024-02-27T20:38:27.796Z,17.15
2024-02-27T20:40:57.436Z,17.33
2024-02-27T20:43:25.585Z,16.73
2024-02-27T20:45:54.304Z,17.33
2024-02-27T20:48:22.541Z,17.30
2024-02-27T20:50:51.235Z,16.40
2024-02-27T20:53:19.420Z,16.20
2024-02-27T20:55:48.335Z,16.95
2024-02-27T20:58:17.873Z,18.02
2024-02-27T21:00:46.098Z,17.38
2024-02-27T21:03:14.356Z,18.20
2024-02-27T21:05:43.121Z,18.20
2024-02-27T21:08:11.294Z,17.48
2024-02-27T21:10:39.908Z,18.25
2024-02-27T21:13:10.028Z,17.48
2024-02-27T21:15:39.626Z,17.63
2024-02-27T21:18:07.871Z,18.00
2024-02-27T21:20:37.937Z,16.33
2024-02-27T21:23:08.850Z,17.52
2024-02-27T21:25:36.961Z,18.23
2024-02-27T21:28:05.566Z,19.27
2024-02-27T21:30:33.818Z,17.73
2024-02-27T21:33:07.597Z,18.20
2024-02-27T21:35:35.876Z,17.30
2024-02-27T21:38:04.045Z,17.83
2024-02-27T21:40:32.795Z,17.45
2024-02-27T21:43:01.402Z,17.70
2024-02-27T21:45:31.396Z,17.60
2024-02-27T21:47:59.916Z,17.25
2024-02-27T21:50:29.433Z,17.77
2024-02-27T21:52:57.605Z,18.38
2024-02-27T21:55:26.003Z,18.23
2024-02-27T21:57:54.158Z,18.00
2024-02-27T22:00:24.044Z,17.63
2024-02-27T22:02:52.153Z,18.92
2024-02-27T22:05:22.614Z,17.65
2024-02-27T22:07:53.244Z,17.83
2024-02-27T22:10:21.745Z,18.33
2024-02-27T22:12:49.935Z,18.50
2024-02-27T22:15:18.625Z,17.92
2024-02-27T22:17:46.844Z,17.98
2024-02-27T22:20:16.539Z,17.05
2024-02-27T22:22:44.644Z,17.83
2024-02-27T22:25:14.483Z,18.15
2024-02-27T22:27:42.869Z,17.57
2024-02-27T22:30:16.079Z,19.15
2024-02-27T22:32:44.863Z,18.10
2024-02-27T22:35:13.152Z,18.83
2024-02-27T22:37:41.286Z,18.07
2024-02-27T22:40:11.172Z,18.67
2024-02-27T22:42:40.694Z,18.13
2024-02-27T22:45:10.419Z,18.30
2024-02-27T22:47:38.612Z,19.08
2024-02-27T22:50:08.235Z,19.75
2024-02-27T22:52:36.622Z,19.73
2024-02-27T22:55:05.070Z,20.40
2024-02-27T22:57:33.718Z,19.48
2024-02-27T23:00:06.373Z,19.67
2024-02-27T23:02:34.892Z,18.30
2024-02-27T23:05:03.332Z,19.48
2024-02-27T23:07:31.814Z,18.58
2024-02-27T23:09:59.973Z,19.08
2024-02-27T23:12:28.581Z,17.95
2024-02-27T23:14:56.706Z,18.10
2024-02-27T23:17:26.556Z,16.92
2024-02-27T23:19:54.709Z,18.48
2024-02-27T23:22:23.117Z,17.45
2024-02-27T23:24:54.716Z,17.92
2024-02-27T23:27:26.048Z,18.52
2024-02-27T23:29:54.205Z,17.38
2024-02-27T23:32:22.594Z,18.05
2024-02-27T23:34:52.044Z,17.25
2024-02-27T23:37:20.553Z,18.00
2024-02-27T23:39:48.756Z,18.17
2024-02-27T23:42:17.273Z,18.80
2024-02-27T23:44:45.442Z,19.25
2024-02-27T23:47:14.988Z,17.75
2024-02-27T23:49:43.461Z,17.35
2024-02-27T23:52:13.263Z,19.50
2024-02-27T23:54:45.046Z,18.10
2024-02-27T23:57:13.553Z,17.70
2024-02-27T23:59:41.733Z,17.33
